Hlavní strana
METAR-TAF:

METAR-TAF

Letiště :

Brønnøysund, Norsko

zeměpisná šířka: 65-28N, zeměpisná délka: 012-13E, výška: 0 m

Aktuální stav počasí

Zpráva byla vytvořena před 13 minutami, v 22:50 UTC
Východní vítr 7 kt, proměnlivý mezi východoseverovýchodním a východojihovýchodním
Teplota 11°C
Vlhkost vzduchu 100%
Tlak 1016 hPa
Viditelnost 10 km a více

METAR: ENBN 152250Z AUTO 09007KT 060V120 9999NDV OVC052/// 11/11 Q1016

Čas: 00:03 (23:03 UTC)

Předpověď počasí

Zpráva byla vytvořena před 9 hodinami a 3 minutami, v 14:00 UTC
Předpověď platná od 15 v 15 UTC do 15 v 20 UTC
Jihojihozápadní vítr 15 kt
Viditelnost 10 km a více
Polojasno ve výšce 800 ft
Oblačno až skoro zataženo ve výšce 1600 ft
slabý déšť
Dočasný
od 15 v 15 UTC do 15 v 20 UTC
Viditelnost: 2500 m
Oblačno až skoro zataženo ve výšce 400 ft
déšť, mrholení

TAF: ENBN 151400Z 1515/1520 20015KT 9999 -RA SCT008 BKN016 TEMPO 1515/1520 2500 RADZ BKN004

Stav a předpovědi počasí z více než 4 000 letišť (zprávy METAR a TAF).

Červené a žluté tečky na mapě představují dostupné meteorologické stanice.

Když kurzor umístíte na tečku, zobrazí se název stanice.

Pak kliknutím zobrazíte stav a předpověď počasí.

Chcete-li změnit mapu, kliknutím na zelené tlačítko se znaménkem +mapu přiblížíte, kliknutím na zelené tlačítko se znaménkem – mapu oddálíte a kliknutím na zelené šipky přejdete na sousední mapy.


METAR-TAF: